Time;durP1;ratioP1;P1;durP2;ratioP2;P2;SDS_P1;SDS_P2;PMS_P1;PMS_P2;Temp;Humidity;BMP_temperature;BMP_pressure;BME280_temperature;BME280_humidity;BME280_pressure;Samples;Min_cycle;Max_cycle;Signal;HPM_P1;HPM_P2
2022/09/28 00:01:53;;;;;;;11.63;9.70;;;8.30;99.90;;;;;;4918533;29;20069;-72
2022/09/28 00:04:20;;;;;;;10.75;9.57;;;8.30;99.90;;;;;;4916090;29;20052;-72
2022/09/28 00:06:48;;;;;;;9.40;8.50;;;8.20;99.90;;;;;;4895275;29;20048;-72
2022/09/28 00:09:15;;;;;;;9.32;7.93;;;8.20;99.90;;;;;;4910415;29;20043;-72
2022/09/28 00:11:42;;;;;;;11.75;9.15;;;8.20;99.90;;;;;;4922276;29;20051;-72
2022/09/28 00:14:09;;;;;;;9.07;8.18;;;8.20;99.90;;;;;;4918247;29;20141;-72
2022/09/28 00:16:39;;;;;;;9.82;8.55;;;8.10;99.90;;;;;;4898533;29;20055;-72
2022/09/28 00:19:05;;;;;;;10.30;9.30;;;8.20;99.90;;;;;;4916202;29;20125;-72
2022/09/28 00:21:34;;;;;;;10.32;8.25;;;8.20;99.90;;;;;;4898049;29;20056;-71
2022/09/28 00:24:14;;;;;;;10.10;8.88;;;8.20;99.90;;;;;;4917920;29;20186;-71
2022/09/28 00:26:41;;;;;;;;;;;8.10;99.90;;;;;;4918179;29;20048;-72
2022/09/28 00:29:16;;;;;;;10.55;9.45;;;8.00;99.90;;;;;;4919483;29;19923;-72
2022/09/28 00:31:42;;;;;;;13.40;10.98;;;8.00;99.90;;;;;;4920985;29;20048;-72
2022/09/28 00:34:08;;;;;;;14.05;10.60;;;8.10;99.90;;;;;;4894036;29;20055;-72
2022/09/28 00:36:33;;;;;;;11.55;10.20;;;8.00;99.90;;;;;;4881106;29;20051;-72
2022/09/28 00:39:07;;;;;;;14.20;11.52;;;8.00;99.90;;;;;;4913076;29;20051;-71
2022/09/28 00:41:34;;;;;;;11.88;10.32;;;8.00;99.90;;;;;;4913493;29;20052;-72
2022/09/28 00:44:21;;;;;;;13.18;11.88;;;8.00;99.90;;;;;;4931844;29;20285;-71
2022/09/28 00:47:07;;;;;;;11.15;10.07;;;8.00;99.90;;;;;;4921028;29;20111;-72
2022/09/28 00:49:39;;;;;;;11.98;10.75;;;8.00;99.90;;;;;;4903488;29;20118;-71
2022/09/28 00:52:09;;;;;;;14.55;11.23;;;8.00;99.90;;;;;;4901340;29;20486;-72
2022/09/28 00:54:35;;;;;;;12.57;10.13;;;7.90;99.90;;;;;;4892709;29;20048;-72
2022/09/28 00:57:02;;;;;;;11.55;9.80;;;7.90;99.90;;;;;;4914146;29;20040;-72
2022/09/28 00:59:30;;;;;;;12.13;10.85;;;7.90;99.90;;;;;;4876592;29;20048;-71
2022/09/28 01:01:56;;;;;;;13.63;11.70;;;7.90;99.90;;;;;;4902288;29;20379;-72
2022/09/28 01:04:22;;;;;;;13.27;11.70;;;7.90;99.90;;;;;;4880126;29;20058;-71
2022/09/28 01:06:50;;;;;;;13.00;11.65;;;7.90;99.90;;;;;;4907393;29;20130;-71
2022/09/28 01:09:17;;;;;;;16.65;13.32;;;7.90;99.90;;;;;;4913661;29;20059;-71
2022/09/28 01:11:43;;;;;;;12.70;11.45;;;7.90;99.90;;;;;;4912504;29;20521;-74
2022/09/28 01:14:11;;;;;;;12.23;11.07;;;7.90;99.90;;;;;;4892122;29;20051;-74
2022/09/28 01:17:00;;;;;;;16.40;13.60;;;8.00;99.90;;;;;;4898423;29;20039;-74
2022/09/28 01:19:57;;;;;;;13.88;12.57;;;8.00;99.90;;;;;;4901028;29;20046;-74
2022/09/28 01:22:25;;;;;;;14.70;13.30;;;8.00;99.90;;;;;;4920735;29;20043;-73
2022/09/28 01:25:22;;;;;;;13.77;12.32;;;8.10;99.90;;;;;;4916117;29;20047;-74
2022/09/28 01:28:03;;;;;;;22.92;16.90;;;8.10;99.90;;;;;;4914474;29;20039;-74
2022/09/28 01:30:53;;;;;;;25.88;18.20;;;8.10;99.90;;;;;;4938170;29;20055;-74
2022/09/28 01:33:27;;;;;;;37.47;23.13;;;8.10;99.90;;;;;;4915457;29;20150;-73
2022/09/28 01:36:05;;;;;;;31.27;21.55;;;8.10;99.90;;;;;;4909454;29;20048;-74
2022/09/28 01:38:37;;;;;;;53.45;25.30;;;8.10;99.90;;;;;;4900807;29;20415;-72
2022/09/28 01:41:04;;;;;;;25.58;18.67;;;8.10;99.90;;;;;;4913069;29;20048;-74
2022/09/28 01:43:36;;;;;;;16.38;13.45;;;8.10;99.90;;;;;;4923113;29;20071;-74
2022/09/28 01:46:16;;;;;;;16.13;13.25;;;8.10;99.90;;;;;;4920041;29;20190;-74
2022/09/28 01:48:54;;;;;;;14.88;12.93;;;8.10;99.90;;;;;;4912443;29;20044;-74
2022/09/28 01:51:36;;;;;;;14.98;13.48;;;8.10;99.90;;;;;;4918400;29;20047;-74
2022/09/28 01:54:11;;;;;;;20.67;15.13;;;8.20;99.90;;;;;;4922110;29;20046;-74
2022/09/28 01:56:47;;;;;;;20.30;16.70;;;8.20;99.90;;;;;;4941028;28;20051;-74
2022/09/28 01:59:17;;;;;;;15.45;13.85;;;8.20;99.90;;;;;;4910736;28;20051;-74
2022/09/28 02:01:47;;;;;;;;;;;8.10;99.90;;;;;;4939346;28;20046;-74
2022/09/28 02:04:40;;;;;;;14.85;13.38;;;8.10;99.90;;;;;;4935375;28;19937;-74
2022/09/28 02:07:07;;;;;;;15.18;13.38;;;8.10;99.90;;;;;;4913307;29;20055;-73
2022/09/28 02:09:57;;;;;;;35.25;23.38;;;8.10;99.90;;;;;;4921956;28;20158;-74
2022/09/28 02:12:34;;;;;;;49.17;26.42;;;8.20;99.90;;;;;;4925727;29;20793;-74
2022/09/28 02:15:16;;;;;;;55.92;26.77;;;8.20;99.90;;;;;;4946788;28;20043;-74
2022/09/28 02:17:43;;;;;;;57.00;27.55;;;8.20;99.90;;;;;;4922793;28;20049;-74
2022/09/28 02:20:09;;;;;;;24.02;21.42;;;8.20;99.90;;;;;;4921033;29;20102;-74
2022/09/28 02:22:42;;;;;;;23.42;21.02;;;8.20;99.90;;;;;;4927097;28;20050;-74
2022/09/28 02:25:08;;;;;;;26.20;22.33;;;8.20;99.90;;;;;;4934198;29;20682;-74
2022/09/28 02:27:58;;;;;;;68.22;30.73;;;8.20;99.90;;;;;;4939371;28;20151;-74
2022/09/28 02:30:24;;;;;;;25.33;22.13;;;8.20;99.90;;;;;;4918070;29;20054;-74
2022/09/28 02:32:54;;;;;;;23.67;21.17;;;8.10;99.90;;;;;;4917997;29;20418;-74
2022/09/28 02:35:21;;;;;;;29.75;25.83;;;8.20;99.90;;;;;;4928665;28;20191;-74
2022/09/28 02:37:48;;;;;;;64.88;34.95;;;8.20;99.90;;;;;;4929296;29;20046;-74
2022/09/28 02:40:25;;;;;;;27.60;24.38;;;8.10;99.90;;;;;;4919135;29;20043;-74
2022/09/28 02:43:18;;;;;;;25.95;23.17;;;8.10;99.90;;;;;;4926866;29;20083;-73
2022/09/28 02:45:55;;;;;;;22.08;19.65;;;8.10;99.90;;;;;;4932200;29;20075;-71
2022/09/28 02:48:58;;;;;;;21.63;19.45;;;8.00;99.90;;;;;;4931844;28;20110;-71
2022/09/28 02:51:43;;;;;;;69.63;34.50;;;8.00;99.90;;;;;;4904740;29;20159;-71
2022/09/28 02:54:20;;;;;;;22.08;19.75;;;8.00;99.90;;;;;;4914883;29;20051;-72
2022/09/28 02:57:11;;;;;;;25.67;21.42;;;7.90;99.90;;;;;;4916202;28;20573;-71
2022/09/28 03:00:00;;;;;;;39.22;24.45;;;8.00;99.90;;;;;;4930488;29;20051;-71
2022/09/28 03:02:35;;;;;;;22.70;20.25;;;8.00;99.90;;;;;;4929969;29;20051;-71
2022/09/28 03:05:18;;;;;;;54.60;31.15;;;7.90;99.90;;;;;;4945380;28;20110;-72
2022/09/28 03:08:02;;;;;;;24.15;21.63;;;7.90;99.90;;;;;;4927504;28;20118;-71
2022/09/28 03:10:37;;;;;;;27.92;21.92;;;7.90;99.90;;;;;;4932376;28;20402;-71
2022/09/28 03:13:04;;;;;;;21.95;19.75;;;7.80;99.90;;;;;;4933191;29;20133;-72
2022/09/28 03:15:33;;;;;;;23.85;21.25;;;7.80;99.90;;;;;;4930664;29;20067;-72
2022/09/28 03:17:59;;;;;;;31.08;25.52;;;7.80;99.90;;;;;;4917333;29;20066;-72
2022/09/28 03:20:26;;;;;;;53.97;32.17;;;7.80;99.90;;;;;;4948427;28;20410;-72
2022/09/28 03:22:52;;;;;;;61.58;31.73;;;7.80;99.90;;;;;;4932550;29;20039;-72
2022/09/28 03:25:18;;;;;;;27.48;23.20;;;7.80;99.90;;;;;;4937354;29;20054;-72
2022/09/28 03:27:44;;;;;;;161.60;40.80;;;7.90;99.90;;;;;;4913585;29;20050;-72
2022/09/28 03:30:11;;;;;;;29.55;25.58;;;7.90;99.90;;;;;;4931423;29;20394;-72
2022/09/28 03:32:37;;;;;;;69.70;35.03;;;7.90;99.90;;;;;;4929596;29;20098;-72
2022/09/28 03:35:04;;;;;;;55.88;34.13;;;7.90;99.90;;;;;;4930403;28;20075;-71
2022/09/28 03:37:30;;;;;;;35.78;30.30;;;7.90;99.90;;;;;;4918609;28;20058;-72
2022/09/28 03:39:56;;;;;;;156.55;39.42;;;7.90;99.90;;;;;;4889905;29;20050;-72
2022/09/28 03:42:21;;;;;;;48.88;32.95;;;7.90;99.90;;;;;;4933857;29;20503;-73
2022/09/28 03:44:47;;;;;;;39.60;30.73;;;7.90;99.90;;;;;;4906182;28;20051;-72
2022/09/28 03:47:14;;;;;;;37.05;29.98;;;7.90;99.90;;;;;;4909618;29;20059;-73
2022/09/28 03:49:40;;;;;;;42.35;29.02;;;7.90;99.90;;;;;;4930641;28;20047;-72
2022/09/28 03:52:06;;;;;;;69.38;33.75;;;7.90;99.90;;;;;;4906768;29;20095;-72
2022/09/28 03:54:32;;;;;;;93.25;34.20;;;7.90;99.90;;;;;;4910057;29;20047;-72
2022/09/28 03:57:03;;;;;;;52.05;31.58;;;7.90;99.90;;;;;;4941283;28;20039;-72
2022/09/28 03:59:29;;;;;;;172.32;36.63;;;7.80;99.90;;;;;;4926663;28;20109;-72
2022/09/28 04:01:55;;;;;;;56.38;29.42;;;7.80;99.90;;;;;;4922378;29;20044;-72
2022/09/28 04:04:21;;;;;;;130.43;34.50;;;7.90;99.90;;;;;;4907415;29;20296;-72
2022/09/28 04:06:47;;;;;;;158.30;39.45;;;7.90;99.90;;;;;;4923733;29;20568;-72
2022/09/28 04:09:13;;;;;;;79.00;32.47;;;7.80;99.90;;;;;;4946848;28;20055;-72
2022/09/28 04:11:39;;;;;;;189.15;41.97;;;7.80;99.90;;;;;;4922683;29;20405;-72
2022/09/28 04:14:05;;;;;;;268.10;45.13;;;7.80;99.90;;;;;;4919942;29;20039;-72
2022/09/28 04:16:31;;;;;;;52.33;33.25;;;7.80;99.90;;;;;;4940052;28;20055;-72
2022/09/28 04:18:57;;;;;;;130.95;38.03;;;7.80;99.90;;;;;;4942611;28;20054;-71
2022/09/28 04:21:23;;;;;;;229.45;44.17;;;7.80;99.90;;;;;;4922170;29;20051;-72
2022/09/28 04:23:49;;;;;;;77.38;32.88;;;7.80;99.90;;;;;;4927789;28;20050;-72
2022/09/28 04:26:23;;;;;;;59.13;31.70;;;7.80;99.90;;;;;;4916969;29;20049;-72
2022/09/28 04:31:39;;;;;;;50.08;29.02;;;7.80;99.90;;;;;;4928140;29;20082;-72
2022/09/28 04:34:05;;;;;;;42.20;29.70;;;7.80;99.90;;;;;;4937088;28;20443;-72
2022/09/28 04:36:31;;;;;;;67.53;32.85;;;7.80;99.90;;;;;;4934838;29;20516;-73
2022/09/28 04:38:57;;;;;;;60.17;30.77;;;7.80;99.90;;;;;;4924757;29;20035;-72
2022/09/28 04:41:22;;;;;;;43.72;27.40;;;7.80;99.90;;;;;;4901782;29;20074;-72
2022/09/28 04:43:49;;;;;;;36.53;25.40;;;7.80;99.90;;;;;;4896107;29;20477;-71
2022/09/28 04:46:15;;;;;;;185.57;34.83;;;7.80;99.90;;;;;;4931463;29;20043;-72
2022/09/28 04:48:41;;;;;;;277.02;43.85;;;7.80;99.90;;;;;;4941528;28;20111;-72
2022/09/28 04:51:07;;;;;;;37.40;26.05;;;7.80;99.90;;;;;;4899217;29;20055;-72
2022/09/28 04:53:33;;;;;;;182.13;32.30;;;7.70;99.90;;;;;;4925417;29;20058;-72
2022/09/28 04:56:05;;;;;;;155.35;31.80;;;7.70;99.90;;;;;;4925631;29;20047;-72
2022/09/28 04:58:33;;;;;;;44.13;27.35;;;7.70;99.90;;;;;;4926294;29;20126;-72
2022/09/28 05:01:01;;;;;;;216.98;40.60;;;7.60;99.90;;;;;;4904406;29;20101;-72
2022/09/28 05:03:31;;;;;;;37.33;26.05;;;7.60;99.90;;;;;;4922254;29;20054;-72
2022/09/28 05:05:57;;;;;;;64.63;30.25;;;7.60;99.90;;;;;;4929969;29;20125;-72
2022/09/28 05:08:23;;;;;;;77.07;28.25;;;7.60;99.90;;;;;;4913759;29;20170;-72
2022/09/28 05:11:03;;;;;;;66.10;27.05;;;7.60;99.90;;;;;;4914138;29;20061;-72
2022/09/28 05:13:30;;;;;;;45.67;26.85;;;7.60;99.90;;;;;;4931232;29;20043;-72
2022/09/28 05:15:57;;;;;;;30.45;23.70;;;7.60;99.90;;;;;;4897850;29;20530;-72
2022/09/28 05:18:23;;;;;;;39.33;27.23;;;7.60;99.90;;;;;;4935838;29;20055;-72
2022/09/28 05:20:49;;;;;;;37.83;25.98;;;7.60;99.90;;;;;;4926172;29;20066;-72
2022/09/28 05:23:16;;;;;;;33.15;26.30;;;7.60;99.90;;;;;;4933091;29;20047;-73
2022/09/28 05:25:44;;;;;;;31.65;27.60;;;7.60;99.90;;;;;;4919802;29;20050;-72
2022/09/28 05:28:10;;;;;;;101.93;33.10;;;7.60;99.90;;;;;;4917742;29;20513;-72
2022/09/28 05:30:36;;;;;;;47.08;26.33;;;7.60;99.90;;;;;;4922250;29;20047;-72
2022/09/28 05:33:02;;;;;;;53.58;24.42;;;7.60;99.90;;;;;;4928278;29;20047;-72
2022/09/28 05:35:32;;;;;;;91.75;26.25;;;7.60;99.90;;;;;;4907424;29;20066;-73
2022/09/28 05:38:03;;;;;;;75.50;28.15;;;7.50;99.90;;;;;;4918995;29;20146;-73
2022/09/28 05:40:29;;;;;;;76.18;27.08;;;7.50;99.90;;;;;;4923132;29;20062;-73
2022/09/28 05:42:59;;;;;;;193.35;39.65;;;7.50;99.90;;;;;;4928481;29;20051;-73
2022/09/28 05:45:24;;;;;;;68.47;25.57;;;7.50;99.90;;;;;;4901914;29;20054;-73
2022/09/28 05:47:50;;;;;;;47.63;24.75;;;7.50;99.90;;;;;;4890366;29;20040;-73
2022/09/28 05:50:16;;;;;;;105.32;32.03;;;7.50;99.90;;;;;;4911485;29;20194;-73
2022/09/28 05:52:43;;;;;;;39.88;26.00;;;7.50;99.90;;;;;;4931077;29;20510;-73
2022/09/28 05:55:09;;;;;;;48.47;27.48;;;7.50;99.90;;;;;;4925685;29;20040;-73
2022/09/28 05:57:35;;;;;;;210.45;43.67;;;7.50;99.90;;;;;;4925621;29;20450;-72
2022/09/28 06:00:03;;;;;;;40.88;27.58;;;7.50;99.90;;;;;;4919341;29;20055;-72
2022/09/28 06:02:31;;;;;;;31.30;25.58;;;7.50;99.90;;;;;;4898495;29;20043;-73
2022/09/28 06:04:57;;;;;;;43.65;26.65;;;7.50;99.90;;;;;;4905436;29;20074;-73
2022/09/28 06:07:23;;;;;;;43.22;27.70;;;7.50;99.90;;;;;;4925512;29;20051;-72
2022/09/28 06:09:49;;;;;;;30.48;23.52;;;7.60;99.90;;;;;;4922389;28;20046;-73
2022/09/28 06:12:15;;;;;;;34.13;25.95;;;7.60;99.90;;;;;;4928916;29;20046;-72
2022/09/28 06:14:41;;;;;;;33.17;26.73;;;7.60;99.90;;;;;;4926822;29;20078;-73
2022/09/28 06:17:06;;;;;;;54.22;30.08;;;7.60;99.90;;;;;;4931303;29;20031;-73
2022/09/28 06:19:32;;;;;;;63.25;29.65;;;7.60;99.90;;;;;;4932219;29;20484;-74
2022/09/28 06:22:01;;;;;;;61.47;27.98;;;7.60;99.90;;;;;;4919044;29;20079;-74
2022/09/28 06:24:26;;;;;;;80.82;33.17;;;7.60;99.90;;;;;;4914292;29;20289;-74
2022/09/28 06:26:52;;;;;;;46.00;26.65;;;7.60;99.90;;;;;;4922548;29;20897;-74
2022/09/28 06:29:18;;;;;;;78.80;32.90;;;7.60;99.90;;;;;;4921153;29;20050;-75
2022/09/28 06:31:47;;;;;;;114.10;38.70;;;7.60;99.90;;;;;;4901471;29;20502;-74
2022/09/28 06:34:13;;;;;;;55.83;29.08;;;7.60;99.90;;;;;;4934606;29;20035;-74
2022/09/28 06:36:39;;;;;;;70.00;29.00;;;7.60;99.90;;;;;;4914805;29;20089;-74
2022/09/28 06:39:05;;;;;;;113.30;33.22;;;7.60;99.90;;;;;;4908262;29;20553;-74
2022/09/28 06:41:31;;;;;;;145.60;42.08;;;7.60;99.90;;;;;;4915470;29;20494;-74
2022/09/28 06:43:57;;;;;;;120.75;37.55;;;7.60;99.90;;;;;;4903709;29;20442;-74
2022/09/28 06:46:24;;;;;;;114.05;34.75;;;7.70;99.90;;;;;;4935430;29;20136;-74
2022/09/28 06:48:50;;;;;;;128.80;38.33;;;7.60;99.90;;;;;;4930863;29;20482;-74
2022/09/28 06:51:16;;;;;;;172.80;42.38;;;7.70;99.90;;;;;;4909634;29;20498;-74
2022/09/28 06:53:42;;;;;;;104.82;35.75;;;7.70;99.90;;;;;;4930276;28;20032;-73
2022/09/28 06:56:09;;;;;;;69.10;34.13;;;7.60;99.90;;;;;;4932500;29;20045;-74
2022/09/28 06:58:35;;;;;;;52.90;29.50;;;7.70;99.90;;;;;;4915841;28;20049;-74
2022/09/28 07:01:02;;;;;;;190.52;38.33;;;7.70;99.90;;;;;;4915878;29;20103;-74
2022/09/28 07:03:28;;;;;;;88.82;33.58;;;7.80;99.90;;;;;;4935050;29;20138;-74
2022/09/28 07:05:55;;;;;;;203.70;41.80;;;7.80;99.90;;;;;;4915342;29;20454;-74
2022/09/28 07:08:27;;;;;;;102.95;36.55;;;7.80;99.90;;;;;;4933927;29;20039;-75
2022/09/28 07:10:56;;;;;;;153.32;40.03;;;7.90;99.90;;;;;;4931077;29;20051;-74
2022/09/28 07:13:24;;;;;;;77.72;33.42;;;7.90;99.90;;;;;;4929523;29;20038;-74
2022/09/28 07:15:58;;;;;;;85.82;33.55;;;7.90;99.90;;;;;;4935767;29;20489;-74
2022/09/28 07:18:25;;;;;;;100.70;35.22;;;8.00;99.90;;;;;;4923525;29;20055;-75
2022/09/28 07:20:51;;;;;;;64.38;29.70;;;8.00;99.90;;;;;;4929732;29;20526;-74
2022/09/28 07:23:17;;;;;;;142.23;34.92;;;8.10;99.90;;;;;;4929665;29;20050;-74
2022/09/28 07:25:46;;;;;;;78.80;32.30;;;8.20;99.90;;;;;;4922537;29;20054;-75
2022/09/28 07:28:12;;;;;;;99.80;31.98;;;8.30;99.90;;;;;;4931108;29;20035;-75
2022/09/28 07:30:38;;;;;;;63.13;30.92;;;8.30;99.90;;;;;;4923511;29;20455;-75
2022/09/28 07:33:06;;;;;;;38.05;28.83;;;8.40;99.90;;;;;;4929745;29;20104;-75
2022/09/28 07:35:34;;;;;;;58.58;31.40;;;8.50;99.90;;;;;;4926505;29;20051;-75
2022/09/28 07:38:05;;;;;;;48.42;28.98;;;8.50;99.90;;;;;;4920286;29;20039;-75
2022/09/28 07:43:19;;;;;;;46.58;30.40;;;8.60;99.90;;;;;;4935778;29;20134;-75
2022/09/28 07:45:51;;;;;;;39.80;27.70;;;8.60;99.90;;;;;;4917418;29;20520;-75
2022/09/28 07:48:17;;;;;;;35.47;26.83;;;8.60;99.90;;;;;;4910765;29;20075;-75
2022/09/28 07:50:52;;;;;;;35.92;27.52;;;8.60;99.90;;;;;;4944125;28;20058;-75
2022/09/28 07:53:23;;;;;;;41.75;28.35;;;8.60;99.90;;;;;;4920101;28;20122;-75
2022/09/28 07:56:04;;;;;;;37.70;26.55;;;8.70;99.90;;;;;;4936608;29;20084;-75
2022/09/28 07:58:31;;;;;;;37.03;26.27;;;8.70;99.90;;;;;;4916453;29;20065;-75
2022/09/28 08:00:59;;;;;;;30.00;24.15;;;8.80;99.90;;;;;;4914871;29;20197;-75
2022/09/28 08:03:26;;;;;;;32.72;25.50;;;9.00;99.90;;;;;;4925888;29;20047;-76
2022/09/28 08:06:00;;;;;;;37.20;26.65;;;9.10;99.90;;;;;;4908657;29;20043;-75
2022/09/28 08:08:27;;;;;;;30.88;25.13;;;9.20;99.90;;;;;;4928778;29;20438;-75
2022/09/28 08:10:54;;;;;;;39.78;27.25;;;9.30;99.90;;;;;;4925282;29;20106;-75
2022/09/28 08:13:20;;;;;;;25.23;21.20;;;9.40;99.90;;;;;;4907618;29;20300;-75
2022/09/28 08:15:50;;;;;;;27.20;21.77;;;9.50;99.90;;;;;;4928294;29;20118;-75
2022/09/28 08:18:16;;;;;;;29.63;23.52;;;9.40;99.90;;;;;;4920578;29;20058;-75
2022/09/28 08:23:26;;;;;;;28.15;24.10;;;9.50;99.90;;;;;;4929233;28;20094;-76
2022/09/28 08:25:53;;;;;;;26.80;23.90;;;9.70;99.90;;;;;;4911519;29;20051;-75
2022/09/28 08:28:20;;;;;;;23.92;20.25;;;9.90;99.90;;;;;;4926931;29;20241;-75
2022/09/28 08:30:47;;;;;;;24.55;21.02;;;10.00;99.90;;;;;;4923974;29;20111;-75
2022/09/28 08:33:16;;;;;;;23.67;20.83;;;10.00;99.90;;;;;;4928359;29;20047;-76
2022/09/28 08:35:42;;;;;;;24.73;22.10;;;10.00;99.90;;;;;;4945334;28;20047;-75
2022/09/28 08:38:08;;;;;;;23.85;21.45;;;10.10;99.90;;;;;;4912360;29;20090;-75
2022/09/28 08:40:43;;;;;;;23.05;20.65;;;10.10;99.90;;;;;;4927011;29;20044;-75
2022/09/28 08:43:59;;;;;;;23.33;20.88;;;10.20;99.90;;;;;;4932121;29;20130;-76
2022/09/28 08:46:39;;;;;;;24.50;21.90;;;10.20;99.90;;;;;;4929139;29;20082;-75
2022/09/28 08:49:08;;;;;;;23.02;20.63;;;10.30;99.90;;;;;;4926130;29;20062;-76
2022/09/28 08:51:41;;;;;;;21.73;19.40;;;10.40;99.90;;;;;;4931982;29;20047;-75
2022/09/28 08:54:09;;;;;;;21.52;19.23;;;10.40;99.90;;;;;;4941457;28;20086;-76
2022/09/28 08:56:48;;;;;;;21.05;18.65;;;10.40;99.90;;;;;;4928784;29;20063;-75
2022/09/28 08:59:20;;;;;;;20.35;18.25;;;10.50;99.90;;;;;;4929936;29;20142;-76
2022/09/28 09:01:59;;;;;;;18.88;16.85;;;10.60;99.90;;;;;;4922485;28;20051;-75
2022/09/28 09:04:25;;;;;;;18.00;16.10;;;10.70;99.90;;;;;;4923799;29;20142;-75
2022/09/28 09:07:09;;;;;;;17.88;16.02;;;10.70;99.90;;;;;;4933644;29;20376;-76
2022/09/28 09:09:48;;;;;;;19.38;17.15;;;10.80;99.90;;;;;;4925984;29;20047;-76
2022/09/28 09:12:38;;;;;;;16.95;15.15;;;10.90;99.90;;;;;;4921989;29;20121;-76
2022/09/28 09:15:10;;;;;;;;;;;11.00;99.90;;;;;;4925138;29;20058;-76
2022/09/28 09:17:47;;;;;;;13.23;11.80;;;11.00;99.90;;;;;;4921790;28;20381;-76
2022/09/28 09:20:30;;;;;;;13.70;12.10;;;11.00;99.90;;;;;;4922440;29;20046;-76
2022/09/28 09:23:05;;;;;;;12.93;11.40;;;11.10;99.90;;;;;;4940477;28;20082;-76
2022/09/28 09:25:53;;;;;;;12.15;10.85;;;11.20;99.90;;;;;;4921693;29;20044;-76
2022/09/28 09:28:49;;;;;;;11.55;10.35;;;11.30;99.90;;;;;;4918136;29;20319;-70
2022/09/28 09:31:39;;;;;;;11.45;9.50;;;11.40;99.90;;;;;;4918848;29;20055;-70
2022/09/28 09:34:11;;;;;;;11.45;10.25;;;11.70;99.90;;;;;;4930887;28;20085;-70
2022/09/28 09:36:46;;;;;;;11.30;10.18;;;11.90;99.90;;;;;;4934336;29;20053;-70
2022/09/28 09:39:12;;;;;;;10.80;8.23;;;12.00;99.90;;;;;;4928656;29;20055;-72
2022/09/28 09:42:20;;;;;;;12.40;10.48;;;12.20;99.90;;;;;;4930203;29;20062;-70
2022/09/28 09:45:00;;;;;;;11.52;9.50;;;12.30;99.90;;;;;;4902198;29;20067;-70
2022/09/28 09:47:37;;;;;;;12.57;11.27;;;12.50;99.90;;;;;;4951265;28;20043;-70
2022/09/28 09:50:28;;;;;;;11.93;10.20;;;12.50;99.90;;;;;;4931291;28;20059;-69
2022/09/28 09:53:19;;;;;;;9.10;7.43;;;12.60;99.90;;;;;;4928959;29;20134;-70
2022/09/28 09:55:49;;;;;;;10.35;8.07;;;12.70;99.90;;;;;;4928858;29;20055;-70
2022/09/28 09:58:28;;;;;;;9.32;8.30;;;12.60;99.90;;;;;;4920829;28;20513;-70
2022/09/28 10:01:00;;;;;;;8.75;7.85;;;12.50;99.90;;;;;;4929695;29;20038;-70
2022/09/28 10:03:29;;;;;;;8.27;7.43;;;12.60;99.90;;;;;;4917553;29;20055;-70
2022/09/28 10:06:05;;;;;;;7.30;5.03;;;12.80;99.90;;;;;;4927658;29;20054;-70
2022/09/28 10:08:37;;;;;;;5.35;3.70;;;13.00;99.90;;;;;;4917343;29;20094;-70
2022/09/28 10:11:14;;;;;;;5.25;3.97;;;13.10;99.90;;;;;;4931926;29;20386;-70
2022/09/28 10:13:40;;;;;;;5.75;4.78;;;13.10;99.90;;;;;;4914481;29;20043;-70
2022/09/28 10:16:06;;;;;;;5.43;4.07;;;13.30;99.90;;;;;;4916373;29;20049;-70
2022/09/28 10:18:33;;;;;;;6.43;3.83;;;13.40;99.90;;;;;;4923444;29;20062;-70
2022/09/28 10:21:02;;;;;;;5.50;3.58;;;13.20;99.90;;;;;;4931893;28;20043;-76
2022/09/28 10:23:32;;;;;;;5.95;4.30;;;12.90;99.90;;;;;;4927800;29;20051;-76
2022/09/28 10:26:01;;;;;;;;;;;12.80;99.90;;;;;;4922478;29;20050;-75
2022/09/28 10:28:46;;;;;;;7.18;5.22;;;12.70;99.90;;;;;;4930779;29;20009;-77
2022/09/28 10:31:36;;;;;;;7.10;5.63;;;12.70;99.90;;;;;;4930952;29;20043;-77
2022/09/28 10:34:04;;;;;;;6.78;5.15;;;12.60;99.90;;;;;;4928679;29;20506;-77
2022/09/28 10:36:37;;;;;;;10.45;5.95;;;12.60;99.90;;;;;;4932140;29;20450;-76
2022/09/28 10:39:04;;;;;;;7.38;5.57;;;12.60;99.90;;;;;;4930018;29;20079;-77
2022/09/28 10:41:31;;;;;;;6.07;4.82;;;12.50;99.90;;;;;;4916420;28;20117;-77
2022/09/28 10:44:07;;;;;;;5.63;3.83;;;12.60;99.90;;;;;;4910563;29;20050;-76
2022/09/28 10:46:34;;;;;;;4.40;3.47;;;12.60;99.90;;;;;;4914893;28;20053;-76
2022/09/28 10:49:08;;;;;;;4.65;3.30;;;12.70;99.90;;;;;;4930462;29;20070;-77
2022/09/28 10:51:50;;;;;;;3.38;1.30;;;12.80;99.90;;;;;;4926824;28;20074;-76
2022/09/28 10:54:30;;;;;;;3.15;1.42;;;13.00;99.90;;;;;;4929184;29;20453;-77
2022/09/28 10:56:57;;;;;;;4.97;2.35;;;12.90;99.90;;;;;;4942402;28;20414;-76
2022/09/28 10:59:33;;;;;;;4.53;2.25;;;12.90;99.90;;;;;;4926496;29;20043;-75
2022/09/28 11:02:25;;;;;;;3.88;2.20;;;12.90;99.90;;;;;;4915133;29;20039;-76
2022/09/28 11:04:57;;;;;;;3.70;2.42;;;12.90;99.90;;;;;;4927861;29;20055;-76
2022/09/28 11:07:26;;;;;;;4.13;1.90;;;12.70;99.90;;;;;;4931001;29;20106;-76
2022/09/28 11:09:53;;;;;;;3.75;2.17;;;12.70;99.90;;;;;;4927300;29;20402;-77
2022/09/28 11:12:25;;;;;;;3.25;1.80;;;12.70;99.90;;;;;;4924225;29;20047;-76
2022/09/28 11:15:03;;;;;;;3.80;1.98;;;12.70;99.90;;;;;;4917751;29;20511;-76
2022/09/28 11:17:38;;;;;;;3.92;2.17;;;12.70;99.90;;;;;;4928800;29;20039;-76
2022/09/28 11:20:23;;;;;;;4.18;1.70;;;12.70;99.90;;;;;;4923182;29;20050;-76
2022/09/28 11:23:14;;;;;;;3.95;1.70;;;12.80;99.90;;;;;;4926106;29;20354;-76
2022/09/28 11:25:41;;;;;;;3.97;1.70;;;12.80;99.90;;;;;;4923487;29;20126;-76
2022/09/28 11:28:21;;;;;;;4.65;1.67;;;13.00;99.90;;;;;;4906509;29;20047;-77
2022/09/28 11:30:51;;;;;;;;;;;13.00;99.90;;;;;;4925659;29;20086;-76
2022/09/28 11:33:24;;;;;;;5.10;2.00;;;13.00;99.90;;;;;;4925744;28;19923;-76
2022/09/28 11:35:59;;;;;;;6.65;2.00;;;13.00;99.90;;;;;;4912362;29;20487;-76
2022/09/28 11:38:32;;;;;;;5.55;1.90;;;13.00;99.90;;;;;;4927783;29;20062;-76
2022/09/28 11:41:22;;;;;;;2.78;1.65;;;13.00;99.90;;;;;;4929532;29;20051;-76
2022/09/28 11:44:25;;;;;;;3.92;1.90;;;12.90;99.90;;;;;;4928303;29;20182;-76
2022/09/28 11:47:09;;;;;;;2.25;1.20;;;12.80;99.90;;;;;;4927286;29;20286;-76
2022/09/28 11:49:44;;;;;;;6.03;2.10;;;12.80;99.90;;;;;;4930507;29;20051;-75
2022/09/28 11:52:33;;;;;;;4.85;1.90;;;12.70;99.90;;;;;;4930538;29;20478;-75
2022/09/28 11:55:11;;;;;;;3.80;1.80;;;12.70;99.90;;;;;;4923953;29;20608;-75
2022/09/28 11:57:41;;;;;;;3.10;1.20;;;12.70;99.90;;;;;;4927823;29;20406;-75
2022/09/28 12:00:14;;;;;;;3.28;1.40;;;12.70;99.90;;;;;;4924196;29;20525;-76
2022/09/28 12:02:56;;;;;;;5.43;1.80;;;12.70;99.90;;;;;;4943945;28;20050;-76
2022/09/28 12:05:27;;;;;;;3.55;1.70;;;12.80;99.90;;;;;;4942372;28;20051;-76
2022/09/28 12:08:11;;;;;;;4.25;1.38;;;12.90;99.90;;;;;;4926271;28;20051;-76
2022/09/28 12:10:46;;;;;;;3.80;1.50;;;13.10;99.90;;;;;;4924132;29;20047;-76
2022/09/28 12:13:21;;;;;;;5.72;1.77;;;13.30;99.90;;;;;;4927860;29;20719;-76
2022/09/28 12:15:47;;;;;;;2.28;1.10;;;13.50;99.90;;;;;;4925148;29;20055;-76
2022/09/28 12:18:24;;;;;;;2.85;1.10;;;13.60;99.90;;;;;;4934560;29;20442;-76
2022/09/28 12:21:29;;;;;;;2.60;1.50;;;13.70;99.90;;;;;;4924760;29;20186;-76
2022/09/28 12:24:03;;;;;;;2.53;1.60;;;13.80;99.90;;;;;;4909915;29;20625;-76
2022/09/28 12:26:57;;;;;;;3.45;1.50;;;14.00;99.90;;;;;;4913321;29;20387;-77
2022/09/28 12:29:31;;;;;;;2.85;1.13;;;14.10;99.90;;;;;;4920666;29;20470;-77
2022/09/28 12:31:57;;;;;;;2.20;1.17;;;14.10;99.90;;;;;;4926323;28;20138;-78
2022/09/28 12:34:23;;;;;;;1.40;0.70;;;14.10;99.90;;;;;;4942692;28;20126;-78
2022/09/28 12:36:48;;;;;;;2.28;0.68;;;14.20;99.90;;;;;;4938402;29;20089;-77
2022/09/28 12:39:39;;;;;;;2.60;0.80;;;14.30;99.90;;;;;;4913408;29;20122;-75
2022/09/28 12:42:27;;;;;;;2.58;0.82;;;14.50;99.90;;;;;;4926027;28;20045;-75
2022/09/28 12:45:26;;;;;;;1.95;0.75;;;14.60;99.90;;;;;;4928736;29;20047;-77
2022/09/28 12:48:17;;;;;;;1.95;0.70;;;14.60;99.90;;;;;;4929794;29;20448;-78
2022/09/28 12:51:32;;;;;;;3.58;1.00;;;14.50;99.90;;;;;;4927382;29;20047;-77
2022/09/28 12:54:23;;;;;;;1.88;0.88;;;14.40;99.90;;;;;;4869798;29;20063;-77
2022/09/28 12:57:20;;;;;;;3.00;0.75;;;14.40;99.90;;;;;;4926934;29;20043;-77
2022/09/28 13:00:01;;;;;;;2.25;1.23;;;14.30;99.90;;;;;;4926057;29;20107;-77
2022/09/28 13:02:50;;;;;;;3.35;1.48;;;14.30;99.90;;;;;;4937410;29;20339;-77
2022/09/28 13:05:28;;;;;;;7.47;6.75;;;14.20;99.90;;;;;;4896355;29;20064;-77
2022/09/28 13:08:14;;;;;;;4.20;3.70;;;14.20;99.90;;;;;;4933032;28;20039;-77
2022/09/28 13:10:49;;;;;;;3.72;1.30;;;14.10;99.90;;;;;;4914327;29;20043;-77
2022/09/28 13:13:17;;;;;;;2.60;1.40;;;14.10;99.90;;;;;;4922669;29;20341;-77
2022/09/28 13:15:55;;;;;;;2.35;0.88;;;14.10;99.90;;;;;;4911538;29;20087;-77